Time;durP1;ratioP1;P1;durP2;ratioP2;P2;SDS_P1;SDS_P2;PMS_P1;PMS_P2;Temp;Humidity;BMP_temperature;BMP_pressure;BME280_temperature;BME280_humidity;BME280_pressure;Samples;Min_cycle;Max_cycle;Signal;HPM_P1;HPM_P2
2023/09/23 00:01:43;;;;;;;1.50;1.17;;;;;;;;;;5029875;28;20384;-62
2023/09/23 00:04:09;;;;;;;2.15;1.38;;;;;;;;;;5028693;28;20038;-62
2023/09/23 00:06:37;;;;;;;3.63;1.27;;;;;;;;;;5029796;28;20127;-62
2023/09/23 00:09:04;;;;;;;1.77;1.13;;;;;;;;;;5029805;28;20041;-62
2023/09/23 00:11:30;;;;;;;1.25;1.00;;;;;;;;;;5029039;28;20087;-62
2023/09/23 00:13:56;;;;;;;2.78;1.38;;;;;;;;;;5029403;28;20369;-62
2023/09/23 00:16:22;;;;;;;2.25;1.48;;;;;;;;;;5033232;28;20055;-62
2023/09/23 00:18:48;;;;;;;1.95;1.73;;;;;;;;;;5049364;28;20033;-62
2023/09/23 00:21:14;;;;;;;2.40;2.20;;;;;;;;;;5049568;28;20083;-62
2023/09/23 00:23:40;;;;;;;3.95;2.00;;;;;;;;;;5049485;28;20069;-62
2023/09/23 00:26:06;;;;;;;3.45;2.30;;;;;;;;;;5039052;28;20038;-62
2023/09/23 00:28:33;;;;;;;4.65;2.53;;;;;;;;;;5029265;28;20063;-62
2023/09/23 00:31:05;;;;;;;3.45;2.60;;;;;;;;;;5029523;28;20041;-62
2023/09/23 00:33:31;;;;;;;;;;;;;;;;;;5030170;28;20237;-62
2023/09/23 00:35:57;;;;;;;3.83;2.60;;;;;;;;;;5028910;28;19924;-62
2023/09/23 00:38:23;;;;;;;2.60;2.22;;;;;;;;;;5029469;28;20033;-62
2023/09/23 00:40:49;;;;;;;3.15;2.25;;;;;;;;;;5029333;28;20048;-62
2023/09/23 00:43:17;;;;;;;3.58;2.50;;;;;;;;;;5029009;28;20049;-62
2023/09/23 00:45:51;;;;;;;3.45;2.25;;;;;;;;;;5029220;28;20315;-62
2023/09/23 00:48:20;;;;;;;4.22;2.72;;;;;;;;;;5029329;28;20137;-62
2023/09/23 00:50:47;;;;;;;5.75;3.13;;;;;;;;;;5028891;28;20065;-62
2023/09/23 00:53:14;;;;;;;4.30;3.10;;;;;;;;;;5011331;28;20058;-62
2023/09/23 00:55:42;;;;;;;3.75;3.03;;;;;;;;;;5028981;28;20488;-62
2023/09/23 00:58:08;;;;;;;5.20;3.50;;;;;;;;;;5028960;28;20041;-62
2023/09/23 01:00:36;;;;;;;4.15;3.17;;;;;;;;;;5029286;28;20087;-62
2023/09/23 01:03:02;;;;;;;5.93;3.40;;;;;;;;;;5029377;28;20041;-62
2023/09/23 01:05:29;;;;;;;3.63;3.28;;;;;;;;;;5028702;28;20095;-62
2023/09/23 01:08:01;;;;;;;3.47;3.10;;;;;;;;;;5029018;28;20045;-62
2023/09/23 01:10:28;;;;;;;4.25;3.00;;;;;;;;;;5029225;28;20041;-62
2023/09/23 01:12:54;;;;;;;4.40;2.70;;;;;;;;;;5028762;28;20523;-62
2023/09/23 01:15:22;;;;;;;4.35;2.80;;;;;;;;;;5029831;28;20322;-62
2023/09/23 01:17:52;;;;;;;5.22;3.08;;;;;;;;;;5048064;28;20598;-62
2023/09/23 01:20:18;;;;;;;3.58;2.67;;;;;;;;;;5051920;28;20147;-62
2023/09/23 01:22:47;;;;;;;4.57;2.92;;;;;;;;;;5052518;28;20120;-62
2023/09/23 01:25:13;;;;;;;3.13;2.70;;;;;;;;;;5049453;28;20410;-62
2023/09/23 01:27:39;;;;;;;3.13;2.38;;;;;;;;;;5032249;28;20380;-62
2023/09/23 01:30:05;;;;;;;3.05;2.22;;;;;;;;;;5032370;28;20120;-62
2023/09/23 01:32:51;;;;;;;3.28;1.92;;;;;;;;;;5032443;28;20405;-62
2023/09/23 01:35:20;;;;;;;3.33;2.08;;;;;;;;;;5032132;28;20403;-62
2023/09/23 01:37:46;;;;;;;2.55;1.73;;;;;;;;;;5032351;28;20421;-62
2023/09/23 01:40:16;;;;;;;2.63;1.80;;;;;;;;;;5031839;28;20491;-62
2023/09/23 01:42:43;;;;;;;4.88;2.30;;;;;;;;;;5032234;28;20048;-62
2023/09/23 01:45:10;;;;;;;4.60;1.98;;;;;;;;;;5032169;28;20508;-62
2023/09/23 01:47:37;;;;;;;6.03;2.63;;;;;;;;;;5031927;28;20440;-62
2023/09/23 01:50:03;;;;;;;5.20;3.00;;;;;;;;;;5032178;28;20578;-62
2023/09/23 01:52:29;;;;;;;9.10;3.55;;;;;;;;;;5032239;28;20192;-62
2023/09/23 01:54:55;;;;;;;5.10;3.67;;;;;;;;;;5031589;28;20049;-62
2023/09/23 01:57:21;;;;;;;5.45;3.95;;;;;;;;;;5031907;28;20076;-62
2023/09/23 01:59:47;;;;;;;6.53;3.53;;;;;;;;;;5031812;28;20045;-62
2023/09/23 02:02:17;;;;;;;4.38;3.85;;;;;;;;;;5031886;28;20429;-62
2023/09/23 02:04:43;;;;;;;5.10;4.00;;;;;;;;;;5031338;28;20054;-62
2023/09/23 02:07:13;;;;;;;6.22;4.22;;;;;;;;;;5031503;28;20455;-62
2023/09/23 02:09:39;;;;;;;6.88;3.97;;;;;;;;;;5031904;28;20120;-62
2023/09/23 02:12:05;;;;;;;4.80;4.00;;;;;;;;;;5031433;28;20041;-62
2023/09/23 02:14:31;;;;;;;7.88;4.72;;;;;;;;;;5031498;28;20511;-62
2023/09/23 02:16:57;;;;;;;6.32;4.78;;;;;;;;;;5040184;28;20497;-62
2023/09/23 02:19:24;;;;;;;6.60;4.30;;;;;;;;;;5051219;28;20470;-61
2023/09/23 02:21:51;;;;;;;5.82;4.78;;;;;;;;;;5051539;28;20442;-61
2023/09/23 02:24:18;;;;;;;6.65;5.00;;;;;;;;;;5051554;28;20045;-61
2023/09/23 02:26:48;;;;;;;7.65;4.93;;;;;;;;;;5035059;28;20073;-61
2023/09/23 02:29:15;;;;;;;7.60;4.95;;;;;;;;;;5031592;28;20042;-61
2023/09/23 02:31:47;;;;;;;7.57;4.65;;;;;;;;;;5031432;28;20407;-61
2023/09/23 02:34:16;;;;;;;7.75;4.15;;;;;;;;;;5012887;28;20049;-61
2023/09/23 02:36:43;;;;;;;6.22;4.50;;;;;;;;;;5031277;28;20129;-61
2023/09/23 02:39:16;;;;;;;5.90;4.35;;;;;;;;;;5031449;28;20296;-61
2023/09/23 02:41:45;;;;;;;5.60;5.05;;;;;;;;;;5030881;28;20045;-61
2023/09/23 02:44:12;;;;;;;7.07;4.80;;;;;;;;;;5031148;28;20045;-61
2023/09/23 02:46:39;;;;;;;7.90;5.43;;;;;;;;;;5031280;28;20554;-61
2023/09/23 02:49:09;;;;;;;5.78;4.90;;;;;;;;;;5030805;28;20049;-61
2023/09/23 02:51:36;;;;;;;7.57;4.93;;;;;;;;;;5031084;28;20061;-61
2023/09/23 02:54:04;;;;;;;5.90;4.93;;;;;;;;;;5030725;28;20535;-61
2023/09/23 02:56:30;;;;;;;8.50;5.70;;;;;;;;;;5030756;28;20373;-61
2023/09/23 02:58:57;;;;;;;6.75;5.40;;;;;;;;;;5030750;28;20116;-61
2023/09/23 03:01:25;;;;;;;9.13;5.35;;;;;;;;;;5030607;28;20045;-61
2023/09/23 03:03:51;;;;;;;7.85;6.20;;;;;;;;;;5030368;28;20053;-61
2023/09/23 03:06:18;;;;;;;7.43;5.18;;;;;;;;;;5030596;28;20060;-61
2023/09/23 03:08:47;;;;;;;8.55;6.75;;;;;;;;;;5030666;28;20107;-61
2023/09/23 03:11:18;;;;;;;7.03;5.57;;;;;;;;;;5030181;28;20499;-61
2023/09/23 03:13:44;;;;;;;9.93;7.05;;;;;;;;;;5030751;28;20099;-61
2023/09/23 03:16:14;;;;;;;9.10;6.75;;;;;;;;;;5032314;28;20367;-61
2023/09/23 03:19:10;;;;;;;9.75;7.35;;;;;;;;;;5050071;28;20036;-61
2023/09/23 03:21:36;;;;;;;7.95;7.15;;;;;;;;;;5050013;28;20076;-61
2023/09/23 03:24:02;;;;;;;8.10;6.68;;;;;;;;;;5049669;28;20178;-61
2023/09/23 03:26:28;;;;;;;11.15;7.28;;;;;;;;;;5037084;28;20033;-61
2023/09/23 03:28:54;;;;;;;10.30;7.10;;;;;;;;;;5030427;28;20505;-61
2023/09/23 03:31:20;;;;;;;8.85;7.22;;;;;;;;;;5029742;28;20409;-61
2023/09/23 03:33:46;;;;;;;11.85;7.90;;;;;;;;;;5030488;28;20511;-61
2023/09/23 03:36:16;;;;;;;10.13;7.95;;;;;;;;;;5030028;28;20435;-61
2023/09/23 03:38:42;;;;;;;8.38;7.50;;;;;;;;;;5011233;28;20041;-61
2023/09/23 03:41:11;;;;;;;10.00;7.22;;;;;;;;;;5030060;28;20120;-61
2023/09/23 03:43:39;;;;;;;9.32;7.13;;;;;;;;;;5030355;28;20136;-61
2023/09/23 03:46:10;;;;;;;10.98;7.45;;;;;;;;;;5029524;28;20400;-61
2023/09/23 03:48:37;;;;;;;9.57;7.40;;;;;;;;;;5030016;28;20056;-61
2023/09/23 03:51:05;;;;;;;10.68;7.82;;;;;;;;;;5029704;28;20061;-61
2023/09/23 03:53:31;;;;;;;8.85;7.28;;;;;;;;;;5029606;28;20041;-61
2023/09/23 03:56:01;;;;;;;9.43;7.38;;;;;;;;;;5029661;28;20037;-61
2023/09/23 03:58:27;;;;;;;8.60;7.05;;;;;;;;;;5029853;28;20169;-61
2023/09/23 04:00:54;;;;;;;10.98;7.68;;;;;;;;;;5011361;28;20069;-61
2023/09/23 04:03:21;;;;;;;10.98;7.63;;;;;;;;;;5029797;28;20303;-61
2023/09/23 04:05:55;;;;;;;11.20;7.38;;;;;;;;;;5029760;28;20037;-61
2023/09/23 04:08:21;;;;;;;14.05;8.30;;;;;;;;;;5029339;28;20060;-61
2023/09/23 04:10:47;;;;;;;8.25;7.05;;;;;;;;;;5029784;28;20041;-61
2023/09/23 04:13:14;;;;;;;10.68;7.97;;;;;;;;;;5011993;28;20076;-61
2023/09/23 04:15:40;;;;;;;9.23;7.55;;;;;;;;;;5029298;28;20200;-61
2023/09/23 04:18:06;;;;;;;9.48;7.95;;;;;;;;;;5047582;28;20111;-61
2023/09/23 04:20:32;;;;;;;10.32;7.32;;;;;;;;;;5049263;28;20040;-61
2023/09/23 04:22:58;;;;;;;10.43;8.18;;;;;;;;;;5049230;28;20048;-61
2023/09/23 04:25:24;;;;;;;8.93;7.57;;;;;;;;;;5044856;28;20131;-61
2023/09/23 04:27:50;;;;;;;9.23;7.60;;;;;;;;;;5029894;28;20495;-61
2023/09/23 04:30:16;;;;;;;11.48;7.88;;;;;;;;;;5029535;28;20121;-61
2023/09/23 04:32:42;;;;;;;10.00;7.38;;;;;;;;;;5029128;28;20049;-61
2023/09/23 04:35:09;;;;;;;10.48;8.48;;;;;;;;;;5029324;28;20096;-61
2023/09/23 04:37:39;;;;;;;10.82;7.80;;;;;;;;;;5011348;28;20042;-61
2023/09/23 04:40:09;;;;;;;10.30;8.20;;;;;;;;;;5029016;28;20049;-61
2023/09/23 04:42:35;;;;;;;11.48;8.38;;;;;;;;;;5029349;28;20091;-61
2023/09/23 04:45:01;;;;;;;11.55;8.18;;;;;;;;;;5029366;28;20071;-61
2023/09/23 04:47:27;;;;;;;10.77;8.38;;;;;;;;;;5029031;28;20095;-61
2023/09/23 04:49:55;;;;;;;15.27;9.43;;;;;;;;;;5029605;28;20052;-61
2023/09/23 04:52:20;;;;;;;12.50;8.50;;;;;;;;;;5033353;28;20057;-61
2023/09/23 04:54:47;;;;;;;9.85;8.35;;;;;;;;;;5032733;28;20547;-61
2023/09/23 04:57:14;;;;;;;13.88;9.35;;;;;;;;;;5033041;28;20121;-61
2023/09/23 04:59:40;;;;;;;13.63;9.13;;;;;;;;;;5033171;28;20488;-61
2023/09/23 05:02:06;;;;;;;12.00;9.88;;;;;;;;;;5032681;28;20037;-61
2023/09/23 05:04:32;;;;;;;14.90;10.65;;;;;;;;;;5032830;28;20044;-61
2023/09/23 05:07:00;;;;;;;11.65;9.65;;;;;;;;;;5032597;28;20047;-61
2023/09/23 05:09:27;;;;;;;15.35;10.40;;;;;;;;;;5032648;28;20096;-61
2023/09/23 05:11:53;;;;;;;12.73;9.23;;;;;;;;;;5032790;28;20046;-61
2023/09/23 05:14:19;;;;;;;13.98;10.50;;;;;;;;;;5032715;28;20084;-61
2023/09/23 05:16:46;;;;;;;12.48;9.68;;;;;;;;;;5039093;28;20120;-61
2023/09/23 05:19:12;;;;;;;13.48;10.60;;;;;;;;;;5052673;28;20044;-61
2023/09/23 05:21:39;;;;;;;14.50;11.25;;;;;;;;;;5052704;28;20479;-61
2023/09/23 05:24:06;;;;;;;16.27;11.80;;;;;;;;;;5052013;28;20059;-61
2023/09/23 05:26:33;;;;;;;15.35;11.23;;;;;;;;;;5038879;28;20472;-61
2023/09/23 05:28:59;;;;;;;14.40;11.73;;;;;;;;;;5032566;28;20477;-61
2023/09/23 05:31:25;;;;;;;17.23;13.23;;;;;;;;;;5032040;28;20099;-61
2023/09/23 05:33:51;;;;;;;21.73;13.38;;;;;;;;;;5032325;28;20508;-61
2023/09/23 05:36:17;;;;;;;21.02;14.18;;;;;;;;;;5032299;28;20503;-61
2023/09/23 05:38:43;;;;;;;19.35;13.23;;;;;;;;;;5032306;28;20420;-61
2023/09/23 05:41:09;;;;;;;21.80;15.32;;;;;;;;;;5032243;28;20305;-61
2023/09/23 05:43:35;;;;;;;25.50;15.85;;;;;;;;;;5031956;28;20037;-61
2023/09/23 05:46:05;;;;;;;23.02;16.70;;;;;;;;;;5031545;28;20049;-61
2023/09/23 05:48:31;;;;;;;25.95;17.15;;;;;;;;;;5032163;28;20076;-61
2023/09/23 05:51:04;;;;;;;28.13;17.67;;;;;;;;;;5031728;28;20524;-61
2023/09/23 05:53:32;;;;;;;28.00;18.75;;;;;;;;;;5031578;28;20041;-61
2023/09/23 05:55:58;;;;;;;25.33;17.95;;;;;;;;;;5031943;28;20041;-61
2023/09/23 05:58:24;;;;;;;30.05;18.98;;;;;;;;;;5032046;28;20034;-61
2023/09/23 06:00:50;;;;;;;29.00;18.83;;;;;;;;;;5031861;28;20116;-61
2023/09/23 06:03:17;;;;;;;30.60;19.02;;;;;;;;;;5031181;28;20072;-61
2023/09/23 06:05:44;;;;;;;29.95;19.70;;;;;;;;;;5031838;28;20049;-61
2023/09/23 06:08:10;;;;;;;31.83;21.00;;;;;;;;;;5031485;28;20049;-61
2023/09/23 06:10:36;;;;;;;27.77;19.55;;;;;;;;;;5031988;28;20399;-61
2023/09/23 06:13:03;;;;;;;31.00;20.15;;;;;;;;;;5031425;28;20075;-61
2023/09/23 06:15:29;;;;;;;28.60;19.83;;;;;;;;;;5031318;28;20037;-61
2023/09/23 06:17:55;;;;;;;26.23;19.15;;;;;;;;;;5048413;28;20037;-61
2023/09/23 06:20:21;;;;;;;30.92;21.42;;;;;;;;;;5051327;28;20052;-61
2023/09/23 06:22:47;;;;;;;33.67;22.20;;;;;;;;;;5050775;28;20041;-61
2023/09/23 06:25:13;;;;;;;36.28;21.92;;;;;;;;;;5048405;28;20052;-61
2023/09/23 06:27:39;;;;;;;34.67;22.17;;;;;;;;;;5031469;28;20037;-61
2023/09/23 06:30:06;;;;;;;33.92;22.58;;;;;;;;;;5031155;28;20048;-61
2023/09/23 06:32:32;;;;;;;33.80;21.95;;;;;;;;;;5031467;28;20224;-61
2023/09/23 06:34:58;;;;;;;38.00;23.27;;;;;;;;;;5013682;28;20038;-61
2023/09/23 06:37:24;;;;;;;35.13;22.33;;;;;;;;;;5031010;28;20339;-61
2023/09/23 06:39:50;;;;;;;34.90;23.20;;;;;;;;;;5031618;28;20084;-61
2023/09/23 06:42:16;;;;;;;36.47;22.15;;;;;;;;;;5031439;28;20461;-61
2023/09/23 06:44:42;;;;;;;35.70;22.88;;;;;;;;;;5030861;28;20322;-61
2023/09/23 06:47:08;;;;;;;33.38;23.70;;;;;;;;;;5031332;28;20546;-61
2023/09/23 06:49:35;;;;;;;38.33;23.08;;;;;;;;;;5031133;28;20455;-61
2023/09/23 06:52:01;;;;;;;40.03;24.65;;;;;;;;;;5030363;28;20069;-61
2023/09/23 06:54:27;;;;;;;37.55;23.50;;;;;;;;;;5030388;28;20100;-61
2023/09/23 06:56:56;;;;;;;36.50;23.48;;;;;;;;;;5013083;28;20111;-61
2023/09/23 06:59:22;;;;;;;35.25;24.02;;;;;;;;;;5012635;28;20068;-61
2023/09/23 07:01:48;;;;;;;35.42;23.70;;;;;;;;;;5030880;28;20037;-61
2023/09/23 07:04:14;;;;;;;35.90;23.17;;;;;;;;;;5030745;28;20077;-61
2023/09/23 07:06:40;;;;;;;33.22;23.30;;;;;;;;;;5030548;28;20071;-61
2023/09/23 07:09:07;;;;;;;36.50;23.70;;;;;;;;;;5030779;28;20404;-61
2023/09/23 07:11:33;;;;;;;35.42;23.20;;;;;;;;;;5030749;28;20116;-61
2023/09/23 07:14:00;;;;;;;35.20;23.45;;;;;;;;;;5029461;28;20572;-61
2023/09/23 07:16:26;;;;;;;36.35;23.52;;;;;;;;;;5034824;28;20465;-61
2023/09/23 07:18:53;;;;;;;31.92;22.25;;;;;;;;;;5050372;28;20041;-61
2023/09/23 07:21:19;;;;;;;34.10;23.10;;;;;;;;;;5050043;28;20492;-61
2023/09/23 07:23:45;;;;;;;35.00;22.73;;;;;;;;;;5050249;28;20041;-61
2023/09/23 07:26:19;;;;;;;37.05;24.00;;;;;;;;;;5039478;28;20056;-61
2023/09/23 07:28:45;;;;;;;37.03;23.85;;;;;;;;;;5029700;28;20045;-61
2023/09/23 07:31:11;;;;;;;34.00;23.45;;;;;;;;;;5030322;28;20039;-61
2023/09/23 07:33:37;;;;;;;39.28;24.27;;;;;;;;;;5030292;28;20042;-61
2023/09/23 07:36:09;;;;;;;31.15;21.15;;;;;;;;;;5029458;28;20404;-61
2023/09/23 07:38:35;;;;;;;37.47;22.55;;;;;;;;;;5030277;28;20489;-61
2023/09/23 07:41:02;;;;;;;33.35;22.05;;;;;;;;;;5012434;28;20068;-61
2023/09/23 07:43:28;;;;;;;34.58;22.52;;;;;;;;;;5029768;28;20044;-61
2023/09/23 07:45:54;;;;;;;34.88;22.33;;;;;;;;;;5029659;28;20305;-61
2023/09/23 07:48:20;;;;;;;42.22;22.55;;;;;;;;;;5030033;28;20048;-61
2023/09/23 07:50:46;;;;;;;32.53;20.23;;;;;;;;;;5029252;28;20419;-61
2023/09/23 07:53:12;;;;;;;34.70;21.45;;;;;;;;;;5029985;28;20076;-61
2023/09/23 07:55:38;;;;;;;35.78;22.13;;;;;;;;;;5029774;28;20068;-61
2023/09/23 07:58:05;;;;;;;31.85;21.05;;;;;;;;;;5029556;28;20491;-61
2023/09/23 08:00:31;;;;;;;30.85;20.20;;;;;;;;;;5029846;28;20111;-61
2023/09/23 08:02:57;;;;;;;29.80;20.00;;;;;;;;;;5029958;28;20492;-61
2023/09/23 08:05:23;;;;;;;28.63;19.42;;;;;;;;;;5029528;28;20048;-61
2023/09/23 08:07:51;;;;;;;28.17;18.20;;;;;;;;;;5029761;28;20034;-61
2023/09/23 08:10:17;;;;;;;31.05;18.95;;;;;;;;;;5029886;28;20458;-61
2023/09/23 08:12:43;;;;;;;26.83;18.75;;;;;;;;;;5029486;28;20399;-61
2023/09/23 08:15:11;;;;;;;26.52;19.23;;;;;;;;;;5011855;28;20508;-61
2023/09/23 08:17:38;;;;;;;27.38;18.35;;;;;;;;;;5043750;28;20171;-61
2023/09/23 08:20:14;;;;;;;26.45;17.33;;;;;;;;;;5049069;28;20049;-61
2023/09/23 08:22:40;;;;;;;23.83;17.20;;;;;;;;;;5049584;28;20076;-61
2023/09/23 08:25:06;;;;;;;25.40;17.20;;;;;;;;;;5048268;28;20337;-61
2023/09/23 08:27:32;;;;;;;25.27;17.77;;;;;;;;;;5033492;28;20041;-61
2023/09/23 08:29:58;;;;;;;30.17;18.52;;;;;;;;;;5033740;28;20128;-61
2023/09/23 08:32:24;;;;;;;26.35;17.35;;;;;;;;;;5033394;28;20049;-61
2023/09/23 08:34:50;;;;;;;25.90;17.20;;;;;;;;;;5032923;28;20037;-61
2023/09/23 08:37:16;;;;;;;24.77;17.17;;;;;;;;;;5033644;28;20051;-61
2023/09/23 08:39:42;;;;;;;22.38;16.52;;;;;;;;;;5033458;28;20037;-61
2023/09/23 08:42:08;;;;;;;28.48;16.85;;;;;;;;;;5033085;28;20037;-61
2023/09/23 08:44:35;;;;;;;19.45;14.77;;;;;;;;;;5033168;28;20046;-61
2023/09/23 08:47:01;;;;;;;21.60;17.20;;;;;;;;;;5033588;28;20052;-61
2023/09/23 08:49:28;;;;;;;21.67;15.50;;;;;;;;;;5033125;28;20101;-61
2023/09/23 08:51:55;;;;;;;20.80;15.52;;;;;;;;;;5033131;28;20552;-61
2023/09/23 08:54:28;;;;;;;25.73;17.15;;;;;;;;;;5033002;28;20046;-61
2023/09/23 08:56:54;;;;;;;25.20;16.60;;;;;;;;;;5032966;28;20060;-61
2023/09/23 08:59:20;;;;;;;21.98;16.15;;;;;;;;;;5015545;28;20042;-61
2023/09/23 09:01:46;;;;;;;23.77;17.77;;;;;;;;;;5033177;28;20095;-61
2023/09/23 09:04:16;;;;;;;20.63;15.70;;;;;;;;;;5032826;28;20442;-61
2023/09/23 09:06:49;;;;;;;17.92;14.85;;;;;;;;;;5033164;28;20096;-61
2023/09/23 09:09:16;;;;;;;18.60;14.75;;;;;;;;;;5033113;28;20041;-61
2023/09/23 09:11:42;;;;;;;18.10;14.02;;;;;;;;;;5032440;28;20046;-61
2023/09/23 09:14:08;;;;;;;18.00;14.32;;;;;;;;;;5015098;28;20045;-61
2023/09/23 09:16:34;;;;;;;20.13;14.13;;;;;;;;;;5037981;28;20426;-61
2023/09/23 09:19:00;;;;;;;17.35;14.20;;;;;;;;;;5052315;28;20245;-61
2023/09/23 09:21:26;;;;;;;18.38;12.23;;;;;;;;;;5052891;28;20040;-61
2023/09/23 09:23:53;;;;;;;14.02;10.73;;;;;;;;;;5052595;28;20431;-61
2023/09/23 09:26:21;;;;;;;15.13;11.32;;;;;;;;;;5040324;28;20116;-62
2023/09/23 09:28:47;;;;;;;16.60;11.40;;;;;;;;;;5032492;28;20069;-62
2023/09/23 09:31:14;;;;;;;15.95;10.57;;;;;;;;;;5014941;28;20500;-62
2023/09/23 09:33:43;;;;;;;15.85;10.32;;;;;;;;;;5032674;28;20080;-62
2023/09/23 09:36:09;;;;;;;12.48;10.20;;;;;;;;;;5032007;28;20055;-62
2023/09/23 09:38:37;;;;;;;14.07;10.52;;;;;;;;;;5032499;28;20064;-62
2023/09/23 09:41:04;;;;;;;14.07;9.95;;;;;;;;;;5031973;28;20041;-62
2023/09/23 09:43:33;;;;;;;11.48;8.93;;;;;;;;;;5032257;28;20049;-62
2023/09/23 09:46:07;;;;;;;11.85;9.70;;;;;;;;;;5031978;28;20603;-62
2023/09/23 09:48:33;;;;;;;10.63;8.82;;;;;;;;;;5032285;28;20053;-62
2023/09/23 09:50:59;;;;;;;10.77;8.80;;;;;;;;;;5031650;28;20057;-62
2023/09/23 09:53:26;;;;;;;11.27;8.45;;;;;;;;;;5031958;28;20050;-62
2023/09/23 09:55:56;;;;;;;12.95;8.13;;;;;;;;;;5032066;28;20452;-62
2023/09/23 09:58:22;;;;;;;9.82;8.02;;;;;;;;;;5013892;28;20057;-62
2023/09/23 10:00:50;;;;;;;11.07;7.60;;;;;;;;;;5032256;28;20037;-62
2023/09/23 10:03:16;;;;;;;10.38;7.03;;;;;;;;;;5032247;28;20049;-62
2023/09/23 10:05:46;;;;;;;9.30;6.68;;;;;;;;;;5031541;28;20051;-62
2023/09/23 10:08:13;;;;;;;10.25;6.05;;;;;;;;;;5032024;28;20056;-62
2023/09/23 10:10:44;;;;;;;12.68;7.05;;;;;;;;;;5032195;28;20034;-62
2023/09/23 10:13:18;;;;;;;11.43;6.20;;;;;;;;;;5031426;28;20067;-62
2023/09/23 10:15:44;;;;;;;8.52;5.95;;;;;;;;;;5031731;28;20042;-62
2023/09/23 10:18:11;;;;;;;11.95;6.43;;;;;;;;;;5050079;28;20068;-62
2023/09/23 10:20:42;;;;;;;11.15;5.40;;;;;;;;;;5051556;28;20597;-62
2023/09/23 10:23:08;;;;;;;13.07;5.55;;;;;;;;;;5051989;28;20041;-62
2023/09/23 10:25:38;;;;;;;9.05;5.15;;;;;;;;;;5045487;28;20483;-62
2023/09/23 10:28:05;;;;;;;7.35;5.20;;;;;;;;;;5031671;28;20102;-62
2023/09/23 10:30:33;;;;;;;6.22;4.85;;;;;;;;;;5031603;28;20046;-62
2023/09/23 10:32:59;;;;;;;7.90;5.95;;;;;;;;;;5030945;28;20049;-62
2023/09/23 10:35:26;;;;;;;9.65;5.47;;;;;;;;;;5031170;28;20044;-62
2023/09/23 10:37:52;;;;;;;7.47;4.72;;;;;;;;;;5031337;28;20175;-62
2023/09/23 10:40:20;;;;;;;8.02;3.97;;;;;;;;;;5031274;28;20327;-62
2023/09/23 10:42:46;;;;;;;6.70;3.67;;;;;;;;;;5031033;28;20098;-62
2023/09/23 10:45:13;;;;;;;6.30;3.05;;;;;;;;;;5031429;28;20052;-62
2023/09/23 10:47:40;;;;;;;9.23;3.53;;;;;;;;;;5030835;28;20092;-62
2023/09/23 10:50:07;;;;;;;8.98;3.00;;;;;;;;;;5030601;28;20061;-62
2023/09/23 10:52:34;;;;;;;7.03;3.40;;;;;;;;;;5013360;28;20045;-62
2023/09/23 10:55:04;;;;;;;5.78;3.20;;;;;;;;;;5030744;28;20052;-62
2023/09/23 10:57:30;;;;;;;8.57;3.58;;;;;;;;;;5030568;28;20081;-62
2023/09/23 10:59:57;;;;;;;8.63;3.35;;;;;;;;;;5030929;28;20065;-62
2023/09/23 11:02:24;;;;;;;8.10;3.53;;;;;;;;;;5030839;28;20055;-62
2023/09/23 11:04:51;;;;;;;6.47;2.60;;;;;;;;;;5030469;28;20407;-62
2023/09/23 11:07:17;;;;;;;6.65;2.90;;;;;;;;;;5031114;28;20439;-62
2023/09/23 11:09:46;;;;;;;5.65;3.40;;;;;;;;;;5030712;28;20051;-62
2023/09/23 11:12:16;;;;;;;5.95;2.58;;;;;;;;;;5030349;28;20079;-62
2023/09/23 11:14:43;;;;;;;5.18;2.55;;;;;;;;;;5030602;28;20521;-62
2023/09/23 11:17:19;;;;;;;4.22;2.78;;;;;;;;;;5040712;28;20446;-62
2023/09/23 11:19:52;;;;;;;9.23;3.22;;;;;;;;;;5050715;28;20040;-62
2023/09/23 11:22:25;;;;;;;4.10;2.50;;;;;;;;;;5050583;28;20095;-62
2023/09/23 11:24:51;;;;;;;8.35;2.47;;;;;;;;;;5049963;28;20403;-62
2023/09/23 11:27:17;;;;;;;4.70;2.30;;;;;;;;;;5030282;28;20045;-62
2023/09/23 11:29:43;;;;;;;2.92;2.40;;;;;;;;;;5030507;28;20045;-62
2023/09/23 11:32:10;;;;;;;5.60;2.60;;;;;;;;;;5030544;28;20041;-62
2023/09/23 11:34:36;;;;;;;5.18;2.78;;;;;;;;;;5030036;28;20484;-62
2023/09/23 11:37:02;;;;;;;7.47;2.97;;;;;;;;;;5030340;28;20044;-62
2023/09/23 11:39:32;;;;;;;4.30;2.70;;;;;;;;;;5030345;28;20056;-62
2023/09/23 11:41:58;;;;;;;4.85;2.92;;;;;;;;;;5029598;28;20085;-62
2023/09/23 11:44:24;;;;;;;6.28;2.40;;;;;;;;;;5029939;28;20090;-62
2023/09/23 11:46:50;;;;;;;2.50;2.05;;;;;;;;;;5030130;28;20487;-62
2023/09/23 11:49:16;;;;;;;4.43;1.90;;;;;;;;;;5029852;28;20076;-62
2023/09/23 11:51:42;;;;;;;4.00;2.15;;;;;;;;;;5029759;28;20061;-62
2023/09/23 11:54:10;;;;;;;4.38;1.83;;;;;;;;;;5029947;28;20108;-62
2023/09/23 11:56:36;;;;;;;3.33;1.75;;;;;;;;;;5029981;28;20507;-62
2023/09/23 11:59:02;;;;;;;4.75;1.60;;;;;;;;;;5029826;28;20041;-62
2023/09/23 12:01:28;;;;;;;4.40;1.60;;;;;;;;;;5029389;28;20400;-62
2023/09/23 12:03:58;;;;;;;5.15;1.60;;;;;;;;;;5029493;28;20081;-62
2023/09/23 12:06:34;;;;;;;2.80;1.70;;;;;;;;;;5030001;28;20041;-62
2023/09/23 12:09:01;;;;;;;2.47;1.55;;;;;;;;;;5030181;28;20049;-62
2023/09/23 12:11:27;;;;;;;2.42;1.40;;;;;;;;;;5029570;28;20037;-62
2023/09/23 12:13:53;;;;;;;3.70;1.45;;;;;;;;;;5029818;28;20480;-62
2023/09/23 12:16:19;;;;;;;4.72;1.67;;;;;;;;;;5033013;28;20216;-62
2023/09/23 12:18:48;;;;;;;3.85;1.70;;;;;;;;;;5049318;28;20036;-62
2023/09/23 12:21:14;;;;;;;4.30;1.55;;;;;;;;;;5049632;28;20384;-62
2023/09/23 12:23:41;;;;;;;3.65;1.50;;;;;;;;;;5041461;28;20119;-62
2023/09/23 12:26:08;;;;;;;5.03;2.00;;;;;;;;;;5038652;28;20132;-62
2023/09/23 12:28:34;;;;;;;4.10;1.70;;;;;;;;;;5012313;28;20077;-62
2023/09/23 12:31:00;;;;;;;2.65;1.70;;;;;;;;;;5029823;28;20050;-62
2023/09/23 12:33:27;;;;;;;6.10;1.60;;;;;;;;;;5029293;28;20052;-62
2023/09/23 12:35:53;;;;;;;3.45;1.70;;;;;;;;;;5040483;28;20140;-62
2023/09/23 12:38:19;;;;;;;4.68;1.40;;;;;;;;;;5069200;28;20040;-62
2023/09/23 12:40:45;;;;;;;2.90;1.35;;;;;;;;;;5060618;28;20078;-62
2023/09/23 12:43:14;;;;;;;3.08;1.33;;;;;;;;;;5069756;28;20048;-62
2023/09/23 12:45:41;;;;;;;4.22;1.45;;;;;;;;;;5069339;28;20047;-62
2023/09/23 12:48:10;;;;;;;2.47;1.27;;;;;;;;;;5069152;28;20166;-62
2023/09/23 12:50:36;;;;;;;5.45;1.60;;;;;;;;;;5069180;28;20109;-62
2023/09/23 12:53:02;;;;;;;3.30;1.15;;;;;;;;;;5069166;28;20033;-62
2023/09/23 12:55:28;;;;;;;4.22;1.58;;;;;;;;;;5068887;28;20040;-62
2023/09/23 12:57:55;;;;;;;4.18;1.20;;;;;;;;;;5069331;28;20036;-62
2023/09/23 13:00:21;;;;;;;6.03;1.40;;;;;;;;;;5068970;28;20037;-62
2023/09/23 13:02:47;;;;;;;3.20;1.20;;;;;;;;;;5068629;28;20121;-62
2023/09/23 13:05:16;;;;;;;1.13;0.82;;;;;;;;;;5069134;28;20367;-62
2023/09/23 13:07:45;;;;;;;3.03;1.00;;;;;;;;;;5069181;28;20090;-62
2023/09/23 13:10:12;;;;;;;2.75;1.30;;;;;;;;;;5050485;28;20080;-62
2023/09/23 13:12:38;;;;;;;3.42;0.95;;;;;;;;;;5045101;28;20037;-62
2023/09/23 13:15:05;;;;;;;4.13;0.80;;;;;;;;;;5050157;28;20090;-62
2023/09/23 13:17:31;;;;;;;4.53;1.08;;;;;;;;;;5041045;28;20098;-62
2023/09/23 13:19:57;;;;;;;2.50;0.80;;;;;;;;;;5042304;28;20040;-62
2023/09/23 13:22:23;;;;;;;2.08;1.10;;;;;;;;;;5052875;28;20147;-62
2023/09/23 13:24:51;;;;;;;2.80;1.17;;;;;;;;;;5052614;28;20095;-62
2023/09/23 13:27:17;;;;;;;5.88;1.50;;;;;;;;;;5037373;28;20452;-62
2023/09/23 13:29:43;;;;;;;3.88;1.35;;;;;;;;;;5072322;28;20044;-62
2023/09/23 13:32:09;;;;;;;2.80;1.30;;;;;;;;;;5053653;28;20035;-62
2023/09/23 13:34:35;;;;;;;4.22;1.30;;;;;;;;;;5053412;28;20033;-62
2023/09/23 13:37:02;;;;;;;1.00;0.80;;;;;;;;;;5043211;28;20518;-62
2023/09/23 13:39:28;;;;;;;1.40;0.80;;;;;;;;;;5051637;28;20086;-62
2023/09/23 13:41:54;;;;;;;1.48;0.80;;;;;;;;;;5052087;28;20483;-62
2023/09/23 13:44:24;;;;;;;1.88;0.90;;;;;;;;;;5070167;28;20402;-62
2023/09/23 13:46:50;;;;;;;3.80;1.17;;;;;;;;;;5071166;28;20044;-62
2023/09/23 13:49:16;;;;;;;3.67;1.35;;;;;;;;;;5072026;28;20125;-62
2023/09/23 13:51:42;;;;;;;5.75;1.20;;;;;;;;;;5069341;28;20052;-62
2023/09/23 13:54:08;;;;;;;5.63;1.58;;;;;;;;;;5051400;28;20415;-62
2023/09/23 13:56:34;;;;;;;6.00;1.80;;;;;;;;;;5067008;28;20040;-62
2023/09/23 13:59:00;;;;;;;6.10;1.20;;;;;;;;;;5057175;28;20283;-62
2023/09/23 14:01:26;;;;;;;4.47;1.35;;;;;;;;;;5051085;28;20407;-62
2023/09/23 14:03:52;;;;;;;4.40;1.95;;;;;;;;;;5051178;28;20037;-62
2023/09/23 14:06:18;;;;;;;4.63;1.40;;;;;;;;;;5063650;28;20044;-62
2023/09/23 14:08:44;;;;;;;2.85;1.05;;;;;;;;;;5071139;28;20043;-62
2023/09/23 14:11:10;;;;;;;3.35;1.27;;;;;;;;;;5071251;28;20050;-62
2023/09/23 14:13:37;;;;;;;2.38;1.20;;;;;;;;;;5071651;28;20507;-62
2023/09/23 14:16:03;;;;;;;4.30;1.30;;;;;;;;;;5069350;28;20040;-62
2023/09/23 14:18:29;;;;;;;3.75;0.98;;;;;;;;;;5051659;28;20065;-62
2023/09/23 14:20:55;;;;;;;4.43;1.13;;;;;;;;;;5051200;28;20044;-62
2023/09/23 14:23:21;;;;;;;4.75;1.17;;;;;;;;;;5049686;28;20450;-62
2023/09/23 14:25:47;;;;;;;5.65;1.30;;;;;;;;;;5055998;28;20068;-62
2023/09/23 14:28:13;;;;;;;2.67;1.20;;;;;;;;;;5070857;28;20088;-62
2023/09/23 14:30:39;;;;;;;7.32;1.08;;;;;;;;;;5066782;28;20033;-62
2023/09/23 14:33:05;;;;;;;4.03;1.08;;;;;;;;;;5050711;28;20468;-62